createdAt,value
2022-09-01T00:05:10.984Z,10
2022-09-01T00:11:11.011Z,10
2022-09-01T00:17:10.998Z,10
2022-09-01T00:23:10.988Z,9.9
2022-09-01T00:29:10.985Z,9.8
2022-09-01T00:35:10.980Z,9.9
2022-09-01T00:41:10.986Z,10
2022-09-01T00:47:10.987Z,10
2022-09-01T00:53:11.003Z,10
2022-09-01T00:59:10.995Z,10.1
2022-09-01T01:05:12.767Z,10
2022-09-01T01:11:10.994Z,9.9
2022-09-01T01:17:10.992Z,9.8
2022-09-01T01:23:11.019Z,10
2022-09-01T01:29:11.015Z,10
2022-09-01T01:35:10.984Z,10
2022-09-01T01:41:11.027Z,10.1
2022-09-01T01:47:10.990Z,10
2022-09-01T01:53:11.791Z,10.1
2022-09-01T01:59:11.060Z,10
2022-09-01T02:05:11.015Z,9.9
2022-09-01T02:11:11.059Z,10
2022-09-01T02:17:11.156Z,10
2022-09-01T02:23:11.132Z,10
2022-09-01T02:29:10.997Z,10
2022-09-01T02:35:11.008Z,9.9
2022-09-01T02:41:11.028Z,10
2022-09-01T02:47:10.989Z,10
2022-09-01T02:53:10.994Z,10
2022-09-01T02:59:11.023Z,10
2022-09-01T03:05:11.066Z,10
2022-09-01T03:11:13.203Z,10
2022-09-01T03:17:11.012Z,10
2022-09-01T03:23:11.000Z,10
2022-09-01T03:29:11.010Z,10
2022-09-01T03:35:11.024Z,10.1
2022-09-01T03:41:11.018Z,10.1
2022-09-01T03:47:11.008Z,10
2022-09-01T03:53:11.014Z,10.1
2022-09-01T03:59:11.013Z,10.1
2022-09-01T04:05:11.012Z,10.1
2022-09-01T04:11:11.008Z,10.1
2022-09-01T04:17:11.032Z,10.3
2022-09-01T04:23:11.026Z,10.2
2022-09-01T04:29:11.021Z,10.2
2022-09-01T04:35:11.021Z,10.2
2022-09-01T04:41:11.011Z,10.2
2022-09-01T04:47:11.059Z,10.3
2022-09-01T04:53:11.019Z,10.3
2022-09-01T04:59:11.053Z,10.3
2022-09-01T05:05:11.039Z,10.2
2022-09-01T05:11:11.051Z,10.3
2022-09-01T05:17:11.039Z,10.2
2022-09-01T05:23:11.020Z,10.2
2022-09-01T05:29:11.016Z,10.4
2022-09-01T05:35:11.051Z,10.4
2022-09-01T05:41:11.018Z,10.4
2022-09-01T05:47:11.020Z,10.5
2022-09-01T05:53:11.162Z,10.5
2022-09-01T05:59:26.662Z,10.6
2022-09-01T06:05:11.131Z,10.6
2022-09-01T06:11:11.030Z,10.6
2022-09-01T06:17:11.016Z,10.5
2022-09-01T06:23:11.066Z,10.6
2022-09-01T06:29:11.035Z,10.5
2022-09-01T06:35:11.042Z,10.7
2022-09-01T06:41:11.038Z,11.2
2022-09-01T06:47:11.049Z,11.2
2022-09-01T06:59:11.027Z,10.9
2022-09-01T07:17:26.357Z,11.5
2022-09-01T07:23:11.054Z,11
2022-09-01T07:29:11.045Z,10.7
2022-09-01T07:42:56.983Z,11.2
2022-09-01T07:53:11.074Z,9.9
2022-09-01T07:59:14.930Z,9.9
2022-09-01T08:05:11.056Z,9.9
2022-09-01T08:11:11.061Z,10.1
2022-09-01T08:17:34.355Z,10
2022-09-01T08:23:11.077Z,10.5
2022-09-01T08:29:11.071Z,10.3
2022-09-01T08:35:11.076Z,10.2
2022-09-01T08:41:11.075Z,10.5
2022-09-01T08:47:13.883Z,10.6
2022-09-01T08:53:11.068Z,10.7
2022-09-01T08:59:11.081Z,10.6
2022-09-01T09:05:17.968Z,10.7
2022-09-01T09:11:11.093Z,10.8
2022-09-01T09:17:11.080Z,10.8
2022-09-01T09:23:11.086Z,11
2022-09-01T09:29:11.091Z,11.1
2022-09-01T09:35:11.096Z,10.4
2022-09-01T09:41:20.378Z,10.8
2022-09-01T09:47:33.492Z,10.9
2022-09-01T09:53:11.097Z,10.8
2022-09-01T09:59:11.091Z,10.6
2022-09-01T10:05:11.209Z,10.6
2022-09-01T10:11:11.199Z,10.5
2022-09-01T10:17:11.216Z,10.8
2022-09-01T10:23:14.902Z,10.7
2022-09-01T10:29:12.217Z,10.4
2022-09-01T10:35:11.124Z,10.7
2022-09-01T10:41:14.936Z,10.4
2022-09-01T10:47:14.824Z,10.6
2022-09-01T10:53:11.488Z,10.5
2022-09-01T11:05:11.208Z,10.3
2022-09-01T11:11:11.130Z,10.6
2022-09-01T11:17:11.218Z,10.6
2022-09-01T11:23:11.145Z,10.3
2022-09-01T11:29:11.224Z,10.2
2022-09-01T11:35:11.185Z,11.5
2022-09-01T11:41:11.157Z,10.7
2022-09-01T11:47:14.445Z,10.6
2022-09-01T11:53:11.183Z,10.5
2022-09-01T11:59:11.183Z,10.6
2022-09-01T12:05:11.149Z,10.4
2022-09-01T12:11:11.187Z,10.6
2022-09-01T12:17:11.240Z,10.6
2022-09-01T12:23:11.183Z,10.4
2022-09-01T12:29:11.188Z,10.7
2022-09-01T12:35:11.775Z,11.3
2022-09-01T12:41:11.256Z,10.6
2022-09-01T12:47:11.189Z,10.5
2022-09-01T12:53:11.176Z,10.5
2022-09-01T12:59:15.762Z,10.4
2022-09-01T13:05:11.179Z,10.5
2022-09-01T13:11:11.529Z,10.1
2022-09-01T13:17:14.333Z,9.9
2022-09-01T13:23:11.172Z,9.8
2022-09-01T13:29:11.188Z,10.2
2022-09-01T13:35:11.203Z,10.1
2022-09-01T13:41:11.674Z,10
2022-09-01T13:53:11.182Z,9.9
2022-09-01T13:59:11.185Z,9.8
2022-09-01T14:05:11.188Z,9.9
2022-09-01T14:11:11.206Z,9.6
2022-09-01T14:17:11.222Z,8.1
2022-09-01T14:23:11.201Z,8.8
2022-09-01T14:29:11.230Z,8.9
2022-09-01T14:35:11.249Z,8.2
2022-09-01T14:41:11.211Z,7.7
2022-09-01T14:47:12.224Z,7.9
2022-09-01T14:53:11.228Z,8.5
2022-09-01T14:59:11.230Z,8.3
2022-09-01T15:05:11.331Z,8
2022-09-01T15:11:11.249Z,8.4
2022-09-01T15:17:11.234Z,8.5
2022-09-01T15:23:11.228Z,7.9
2022-09-01T15:29:11.247Z,7.7
2022-09-01T15:35:11.231Z,7.7
2022-09-01T15:41:11.217Z,8
2022-09-01T15:47:11.253Z,7.6
2022-09-01T15:53:11.237Z,7.4
2022-09-01T15:59:11.226Z,8
2022-09-01T16:05:11.226Z,7.7
2022-09-01T16:11:11.227Z,7.5
2022-09-01T16:17:11.267Z,7.4
2022-09-01T16:23:11.249Z,7.5
2022-09-01T16:29:11.255Z,7.2
2022-09-01T16:35:11.231Z,7.1
2022-09-01T16:41:11.235Z,7.7
2022-09-01T16:47:11.251Z,7.4
2022-09-01T16:53:11.239Z,6.7
2022-09-01T16:59:11.301Z,6.7
2022-09-01T17:05:11.250Z,6.8
2022-09-01T17:11:11.252Z,7
2022-09-01T17:17:11.238Z,6.8
2022-09-01T17:23:11.247Z,6.9
2022-09-01T17:29:11.267Z,6.8
2022-09-01T17:35:11.267Z,7
2022-09-01T17:41:11.275Z,6.8
2022-09-01T17:47:11.262Z,7
2022-09-01T17:53:11.281Z,7.2
2022-09-01T17:59:11.277Z,7.1
2022-09-01T18:05:11.307Z,7
2022-09-01T18:11:11.272Z,7
2022-09-01T18:17:11.338Z,7
2022-09-01T18:23:11.288Z,7.1
2022-09-01T18:29:11.274Z,7
2022-09-01T18:35:11.280Z,7.1
2022-09-01T18:41:11.283Z,7
2022-09-01T18:47:11.292Z,7.1
2022-09-01T18:53:11.296Z,7.1
2022-09-01T18:59:11.276Z,7.1
2022-09-01T19:05:11.316Z,7.1
2022-09-01T19:11:11.296Z,7.1
2022-09-01T19:17:11.415Z,7.2
2022-09-01T19:23:11.300Z,7.1
2022-09-01T19:29:11.317Z,7.1
2022-09-01T19:35:11.312Z,7.1
2022-09-01T19:41:11.297Z,7.1
2022-09-01T19:47:11.348Z,7.1
2022-09-01T19:53:11.330Z,7.1
2022-09-01T19:59:11.313Z,6.9
2022-09-01T20:05:11.323Z,6.8
2022-09-01T20:11:11.308Z,6.8
2022-09-01T20:17:11.311Z,6.6
2022-09-01T20:23:11.293Z,6.7
2022-09-01T20:29:11.306Z,6.6
2022-09-01T20:35:11.309Z,6.6
2022-09-01T20:41:11.289Z,6.6
2022-09-01T20:47:11.316Z,6.7
2022-09-01T20:53:11.325Z,6.6
2022-09-01T20:59:11.323Z,6.6
2022-09-01T21:05:11.325Z,6.8
2022-09-01T21:11:11.315Z,6.7
2022-09-01T21:17:11.307Z,6.8
2022-09-01T21:23:11.305Z,6.8
2022-09-01T21:29:11.310Z,6.8
2022-09-01T21:35:11.323Z,6.7
2022-09-01T21:41:13.164Z,6.8
2022-09-01T21:47:11.329Z,6.7
2022-09-01T21:53:11.308Z,6.6
2022-09-01T21:59:11.317Z,6.7
2022-09-01T22:05:11.350Z,6.6
2022-09-01T22:11:11.326Z,6.7
2022-09-01T22:17:11.381Z,6.4
2022-09-01T22:23:11.336Z,6.5
2022-09-01T22:29:11.342Z,6.5
2022-09-01T22:35:11.346Z,6.5
2022-09-01T22:41:11.316Z,6.6
2022-09-01T22:47:11.336Z,6.6
2022-09-01T22:53:11.334Z,6.5
2022-09-01T22:59:11.321Z,6.5
2022-09-01T23:05:11.339Z,6.5
2022-09-01T23:11:11.328Z,6.5
2022-09-01T23:17:11.329Z,6.5
2022-09-01T23:23:11.315Z,6.5
2022-09-01T23:29:11.334Z,6.6
2022-09-01T23:35:11.328Z,6.7
2022-09-01T23:41:11.336Z,6.7
2022-09-01T23:47:11.325Z,6.6
2022-09-01T23:53:11.351Z,6.7
2022-09-01T23:59:11.324Z,6.7
